createdAt,value
2018-11-04T00:00:30.976Z,30.47
2018-11-04T00:03:06.090Z,32.80
2018-11-04T00:05:41.021Z,33.70
2018-11-04T00:08:16.210Z,34.40
2018-11-04T00:10:51.145Z,30.07
2018-11-04T00:13:26.003Z,35.13
2018-11-04T00:16:00.471Z,33.20
2018-11-04T00:18:35.161Z,35.93
2018-11-04T00:21:10.125Z,34.40
2018-11-04T00:23:44.170Z,33.70
2018-11-04T00:26:19.655Z,34.57
2018-11-04T00:28:54.281Z,34.57
2018-11-04T00:31:28.815Z,37.47
2018-11-04T00:34:03.241Z,35.43
2018-11-04T00:36:37.619Z,35.43
2018-11-04T00:39:13.130Z,38.23
2018-11-04T00:41:48.177Z,34.40
2018-11-04T00:44:22.240Z,35.50
2018-11-04T00:46:57.365Z,34.10
2018-11-04T00:49:31.721Z,38.20
2018-11-04T00:52:06.501Z,34.77
2018-11-04T00:54:41.737Z,31.20
2018-11-04T00:57:17.054Z,33.23
2018-11-04T00:59:51.942Z,32.97
2018-11-04T01:02:27.094Z,36.33
2018-11-04T01:05:01.311Z,34.37
2018-11-04T01:07:35.927Z,38.93
2018-11-04T01:10:11.066Z,36.70
2018-11-04T01:12:46.286Z,35.33
2018-11-04T01:15:20.561Z,37.27
2018-11-04T01:17:55.014Z,36.60
2018-11-04T01:20:29.727Z,32.83
2018-11-04T01:23:04.530Z,36.17
2018-11-04T01:25:39.205Z,32.50
2018-11-04T01:28:14.255Z,35.53
2018-11-04T01:30:48.750Z,30.80
2018-11-04T01:33:23.762Z,36.03
2018-11-04T01:35:58.540Z,34.83
2018-11-04T01:38:32.976Z,33.63
2018-11-04T01:41:07.274Z,30.33
2018-11-04T01:43:41.304Z,32.80
2018-11-04T01:46:16.265Z,30.67
2018-11-04T01:48:51.324Z,34.00
2018-11-04T01:51:25.800Z,33.53
2018-11-04T01:53:59.793Z,33.73
2018-11-04T01:56:35.474Z,35.13
2018-11-04T01:59:09.281Z,34.87
2018-11-04T02:01:43.749Z,35.20
2018-11-04T02:04:19.200Z,34.57
2018-11-04T02:06:53.795Z,34.93
2018-11-04T02:09:28.936Z,39.57
2018-11-04T02:12:03.751Z,38.97
2018-11-04T02:14:44.987Z,40.33
2018-11-04T02:17:19.206Z,43.93
2018-11-04T02:19:53.415Z,39.67
2018-11-04T02:22:28.713Z,37.40
2018-11-04T02:25:04.066Z,34.73
2018-11-04T02:27:39.022Z,35.57
2018-11-04T02:30:15.285Z,37.67
2018-11-04T02:32:49.420Z,34.90
2018-11-04T02:35:23.837Z,36.80
2018-11-04T02:37:58.140Z,36.37
2018-11-04T02:40:32.842Z,35.17
2018-11-04T02:43:06.940Z,34.60
2018-11-04T02:45:42.194Z,39.83
2018-11-04T02:48:16.378Z,39.60
2018-11-04T02:50:50.591Z,37.50
2018-11-04T02:53:25.467Z,38.63
2018-11-04T02:56:00.235Z,39.97
2018-11-04T02:58:34.645Z,40.57
2018-11-04T03:01:09.410Z,40.93
2018-11-04T03:03:44.236Z,40.40
2018-11-04T03:06:19.357Z,38.13
2018-11-04T03:08:53.412Z,40.73
2018-11-04T03:11:27.837Z,43.83
2018-11-04T03:14:02.530Z,48.40
2018-11-04T03:16:36.671Z,45.17
2018-11-04T03:19:11.854Z,45.50
2018-11-04T03:21:45.937Z,36.40
2018-11-04T03:24:21.246Z,36.57
2018-11-04T03:26:55.956Z,41.73
2018-11-04T03:29:30.920Z,35.47
2018-11-04T03:32:05.145Z,33.70
2018-11-04T03:34:40.179Z,38.77
2018-11-04T03:37:14.981Z,41.33
2018-11-04T03:39:49.478Z,40.20
2018-11-04T03:42:24.736Z,43.10
2018-11-04T03:44:59.019Z,46.27
2018-11-04T03:47:33.164Z,40.93
2018-11-04T03:50:10.364Z,48.07
2018-11-04T03:52:45.233Z,47.27
2018-11-04T03:55:20.134Z,48.87
2018-11-04T03:57:54.560Z,49.40
2018-11-04T04:00:29.524Z,50.33
2018-11-04T04:03:04.124Z,45.03
2018-11-04T04:05:38.618Z,42.67
2018-11-04T04:08:13.431Z,46.60
2018-11-04T04:10:47.688Z,44.37
2018-11-04T04:13:22.838Z,47.77
2018-11-04T04:15:57.746Z,48.13
2018-11-04T04:18:32.797Z,39.77
2018-11-04T04:21:09.221Z,46.13
2018-11-04T04:23:43.661Z,41.07
2018-11-04T04:26:18.156Z,44.03
2018-11-04T04:28:53.554Z,43.00
2018-11-04T04:31:27.940Z,39.63
2018-11-04T04:34:02.371Z,42.77
2018-11-04T04:36:36.591Z,38.93
2018-11-04T04:39:11.756Z,39.50
2018-11-04T04:41:46.330Z,44.37
2018-11-04T04:44:20.613Z,39.77
2018-11-04T04:46:55.826Z,44.70
2018-11-04T04:49:31.007Z,47.40
2018-11-04T04:52:05.853Z,45.97
2018-11-04T04:54:40.753Z,43.40
2018-11-04T04:57:15.166Z,40.70
2018-11-04T04:59:49.469Z,43.47
2018-11-04T05:02:24.100Z,41.10
2018-11-04T05:04:58.068Z,41.63
2018-11-04T05:07:33.628Z,42.60
2018-11-04T05:10:08.683Z,40.93
2018-11-04T05:12:43.704Z,38.03
2018-11-04T05:15:18.810Z,36.90
2018-11-04T05:17:53.121Z,35.00
2018-11-04T05:20:27.783Z,34.57
2018-11-04T05:23:01.727Z,33.13
2018-11-04T05:25:35.827Z,34.80
2018-11-04T05:28:09.854Z,35.70
2018-11-04T05:30:44.470Z,38.17
2018-11-04T05:33:19.330Z,37.40
2018-11-04T05:35:53.949Z,38.23
2018-11-04T05:38:28.552Z,36.23
2018-11-04T05:41:03.600Z,34.83
2018-11-04T05:43:38.369Z,39.00
2018-11-04T05:46:13.371Z,36.17
2018-11-04T05:48:47.738Z,34.77
2018-11-04T05:51:22.599Z,34.87
2018-11-04T05:53:57.093Z,35.03
2018-11-04T05:56:31.835Z,36.67
2018-11-04T05:59:08.126Z,35.27
2018-11-04T06:01:43.216Z,36.87
2018-11-04T06:04:17.372Z,35.07
2018-11-04T06:06:52.678Z,37.23
2018-11-04T06:09:27.424Z,35.23
2018-11-04T06:12:01.645Z,38.87
2018-11-04T06:14:36.225Z,37.43
2018-11-04T06:17:11.191Z,41.20
2018-11-04T06:19:46.118Z,42.67
2018-11-04T06:22:21.553Z,41.27
2018-11-04T06:24:56.125Z,35.43
2018-11-04T06:27:30.509Z,38.20
2018-11-04T06:30:07.194Z,40.20
2018-11-04T06:32:42.661Z,36.03
2018-11-04T06:35:17.049Z,38.60
2018-11-04T06:37:52.081Z,37.33
2018-11-04T06:40:26.639Z,39.10
2018-11-04T06:43:01.460Z,34.53
2018-11-04T06:45:36.675Z,35.13
2018-11-04T06:48:11.064Z,38.70
2018-11-04T06:50:45.109Z,36.33
2018-11-04T06:53:19.831Z,35.37
2018-11-04T06:55:53.924Z,38.17
2018-11-04T06:58:29.048Z,35.00
2018-11-04T07:01:03.433Z,39.73
2018-11-04T07:03:38.148Z,37.87
2018-11-04T07:06:44.860Z,36.10
2018-11-04T07:09:19.584Z,37.57
2018-11-04T07:11:53.946Z,38.13
2018-11-04T07:14:28.910Z,38.53
2018-11-04T07:17:03.559Z,38.00
2018-11-04T07:19:37.870Z,37.20
2018-11-04T07:22:11.974Z,41.30
2018-11-04T07:24:46.433Z,37.50
2018-11-04T07:27:20.373Z,35.43
2018-11-04T07:29:55.263Z,40.67
2018-11-04T07:32:29.555Z,33.83
2018-11-04T07:35:04.025Z,35.87
2018-11-04T07:37:38.501Z,39.40
2018-11-04T07:40:57.652Z,38.33
2018-11-04T07:43:44.416Z,34.37
2018-11-04T07:46:19.383Z,37.47
2018-11-04T07:48:53.766Z,38.83
2018-11-04T07:51:33.480Z,35.10
2018-11-04T07:54:07.737Z,36.90
2018-11-04T07:56:42.499Z,36.77
2018-11-04T07:59:16.930Z,40.83
2018-11-04T08:01:51.700Z,39.13
2018-11-04T08:04:26.761Z,40.40
2018-11-04T08:07:01.995Z,36.53
2018-11-04T08:09:41.754Z,36.90
2018-11-04T08:12:16.215Z,37.30
2018-11-04T08:14:50.401Z,40.80
2018-11-04T08:17:25.040Z,35.47
2018-11-04T08:20:04.250Z,40.13
2018-11-04T08:22:38.944Z,39.10
2018-11-04T08:25:13.219Z,40.53
2018-11-04T08:27:47.436Z,37.83
2018-11-04T08:30:22.330Z,38.80
2018-11-04T08:33:02.010Z,36.37
2018-11-04T08:35:36.655Z,38.77
2018-11-04T08:38:10.849Z,38.13
2018-11-04T08:40:45.318Z,37.40
2018-11-04T08:43:20.405Z,35.47
2018-11-04T08:45:55.833Z,38.00
2018-11-04T08:48:31.032Z,35.63
2018-11-04T08:51:05.997Z,38.00
2018-11-04T08:53:40.262Z,41.27
2018-11-04T08:56:15.238Z,41.60
2018-11-04T08:58:50.149Z,39.10
2018-11-04T09:01:26.325Z,41.07
2018-11-04T09:04:01.016Z,38.40
2018-11-04T09:06:42.047Z,37.00
2018-11-04T09:09:16.686Z,38.23
2018-11-04T09:11:51.727Z,36.60
2018-11-04T09:14:26.681Z,39.40
2018-11-04T09:17:00.640Z,40.17
2018-11-04T09:19:34.774Z,35.30
2018-11-04T09:22:09.574Z,37.60
2018-11-04T09:24:44.030Z,37.07
2018-11-04T09:27:18.540Z,38.87
2018-11-04T09:29:53.154Z,40.20
2018-11-04T09:32:29.241Z,36.00
2018-11-04T09:35:04.247Z,37.30
2018-11-04T09:37:39.228Z,35.70
2018-11-04T09:40:13.986Z,36.70
2018-11-04T09:42:48.655Z,33.73
2018-11-04T09:45:23.324Z,37.00
2018-11-04T09:47:57.691Z,35.10
2018-11-04T09:50:36.927Z,34.73
2018-11-04T09:53:11.085Z,35.07
2018-11-04T09:55:45.380Z,41.73
2018-11-04T09:58:20.704Z,34.70
2018-11-04T10:00:55.858Z,33.60
2018-11-04T10:03:30.225Z,35.23
2018-11-04T10:06:04.726Z,36.33
2018-11-04T10:08:39.229Z,36.33
2018-11-04T10:11:13.399Z,37.20
2018-11-04T10:13:48.480Z,35.97
2018-11-04T10:16:22.668Z,34.93
2018-11-04T10:18:57.565Z,36.63
2018-11-04T10:21:32.839Z,37.17
2018-11-04T10:24:07.624Z,35.00
2018-11-04T10:26:41.746Z,36.80
2018-11-04T10:29:17.024Z,36.67
2018-11-04T10:31:51.270Z,36.20
2018-11-04T10:34:25.735Z,35.90
2018-11-04T10:36:59.888Z,36.67
2018-11-04T10:39:34.539Z,33.00
2018-11-04T10:42:09.096Z,33.10
2018-11-04T10:44:43.699Z,33.53
2018-11-04T10:47:18.079Z,32.60
2018-11-04T10:49:53.304Z,35.40
2018-11-04T10:52:28.730Z,35.70
2018-11-04T10:55:03.725Z,35.80
2018-11-04T10:57:38.035Z,36.40
2018-11-04T11:00:17.713Z,33.57
2018-11-04T11:02:52.117Z,36.97
2018-11-04T11:05:26.791Z,34.70
2018-11-04T11:08:01.577Z,36.53
2018-11-04T11:10:36.372Z,32.87
2018-11-04T11:13:10.879Z,33.13
2018-11-04T11:15:46.214Z,34.53
2018-11-04T11:18:21.921Z,31.10
2018-11-04T11:20:56.012Z,31.90
2018-11-04T11:23:31.265Z,37.43
2018-11-04T11:26:06.095Z,31.20
2018-11-04T11:28:40.569Z,33.20
2018-11-04T11:31:15.344Z,31.80
2018-11-04T11:33:49.861Z,33.90
2018-11-04T11:36:24.954Z,35.87
2018-11-04T11:38:59.902Z,32.93
2018-11-04T11:41:35.039Z,32.03
2018-11-04T11:44:09.865Z,33.57
2018-11-04T11:46:44.256Z,34.83
2018-11-04T11:49:18.915Z,30.83
2018-11-04T11:51:53.330Z,30.87
2018-11-04T11:54:28.080Z,33.07
2018-11-04T11:57:03.490Z,31.07
2018-11-04T11:59:38.619Z,31.67
2018-11-04T12:02:13.653Z,28.83
2018-11-04T12:04:48.075Z,31.23
2018-11-04T12:07:22.710Z,30.20
2018-11-04T12:09:57.190Z,30.07
2018-11-04T12:12:31.685Z,30.97
2018-11-04T12:15:07.364Z,31.77
2018-11-04T12:17:42.358Z,33.90
2018-11-04T12:20:16.947Z,29.03
2018-11-04T12:22:52.267Z,28.87
2018-11-04T12:25:26.459Z,27.63
2018-11-04T12:28:01.478Z,30.17
2018-11-04T12:30:35.942Z,29.07
2018-11-04T12:33:10.020Z,28.60
2018-11-04T12:35:44.480Z,31.13
2018-11-04T12:38:19.401Z,28.47
2018-11-04T12:40:55.013Z,30.13
2018-11-04T12:43:29.564Z,31.57
2018-11-04T12:46:04.090Z,31.03
2018-11-04T12:48:39.087Z,28.17
2018-11-04T12:51:13.837Z,29.83
2018-11-04T12:53:48.912Z,29.23
2018-11-04T12:56:26.329Z,24.97
2018-11-04T12:59:01.153Z,28.07
2018-11-04T13:01:35.451Z,27.77
2018-11-04T13:04:09.598Z,27.40
2018-11-04T13:06:44.013Z,31.33
2018-11-04T13:09:18.523Z,27.10
2018-11-04T13:11:53.105Z,28.53
2018-11-04T13:14:27.706Z,27.53
2018-11-04T13:17:02.944Z,29.10
2018-11-04T13:19:38.027Z,27.53
2018-11-04T13:22:12.424Z,24.90
2018-11-04T13:24:46.580Z,26.13
2018-11-04T13:27:21.043Z,25.13
2018-11-04T13:29:55.314Z,23.43
2018-11-04T13:32:35.420Z,24.93
2018-11-04T13:35:11.971Z,24.67
2018-11-04T18:29:56.400Z,8.80
2018-11-04T18:32:30.723Z,9.37
2018-11-04T18:35:05.562Z,9.20
2018-11-04T18:37:40.971Z,13.03
2018-11-04T18:40:17.309Z,11.03
2018-11-04T18:42:51.906Z,10.67
2018-11-04T18:45:26.793Z,11.20
2018-11-04T18:48:02.304Z,11.27
2018-11-04T18:50:36.694Z,11.50
2018-11-04T18:53:11.097Z,10.87
2018-11-04T18:55:46.258Z,11.23
2018-11-04T18:58:27.350Z,13.20
2018-11-04T20:21:13.560Z,14.30
2018-11-04T20:23:48.711Z,14.97
2018-11-04T20:26:23.038Z,18.13
2018-11-04T20:28:57.333Z,14.37
2018-11-04T20:31:37.291Z,16.00
2018-11-04T20:34:12.301Z,15.03
2018-11-04T20:36:53.506Z,14.67
2018-11-04T20:39:33.148Z,14.50
2018-11-04T20:42:07.877Z,16.17
2018-11-04T20:44:44.191Z,15.60
2018-11-04T20:47:19.153Z,14.80
2018-11-04T20:49:59.434Z,14.07
2018-11-04T20:52:33.993Z,16.13
2018-11-04T20:55:08.535Z,15.13
2018-11-04T20:57:47.557Z,14.37
2018-11-04T21:00:21.842Z,14.53
2018-11-04T21:02:56.308Z,14.70
2018-11-04T21:05:30.842Z,16.60
2018-11-04T21:08:06.838Z,16.50
2018-11-04T21:10:41.622Z,23.17
2018-11-04T21:13:16.482Z,16.60
2018-11-04T21:15:50.987Z,16.93
2018-11-04T21:18:25.247Z,18.40
2018-11-04T21:21:00.141Z,16.20
2018-11-04T21:23:34.244Z,14.87
2018-11-04T21:26:08.612Z,18.73
2018-11-04T21:28:42.762Z,16.10
2018-11-04T21:31:17.222Z,15.97
2018-11-04T21:33:52.371Z,18.23
2018-11-04T21:36:26.833Z,17.37
2018-11-04T21:39:01.384Z,18.27
2018-11-04T21:41:35.768Z,19.00
2018-11-04T21:44:11.281Z,16.63
2018-11-04T21:46:45.349Z,17.57
2018-11-04T21:49:21.198Z,17.80
2018-11-04T21:51:56.171Z,16.73
2018-11-04T21:54:31.150Z,16.53
2018-11-04T21:57:05.379Z,17.90
2018-11-04T21:59:39.552Z,17.27
2018-11-04T22:02:14.190Z,19.27
2018-11-04T22:04:49.267Z,17.60
2018-11-04T22:07:23.799Z,18.50
2018-11-04T22:09:58.948Z,18.13
2018-11-04T22:12:32.905Z,18.87
2018-11-04T22:15:07.517Z,17.43
2018-11-04T22:17:42.139Z,20.60
2018-11-04T22:20:17.348Z,18.80
2018-11-04T22:22:51.767Z,18.63
2018-11-04T22:25:26.247Z,17.97
2018-11-04T22:28:00.567Z,18.63
2018-11-04T22:30:34.512Z,18.80
2018-11-04T22:33:08.741Z,19.07
2018-11-04T22:35:42.832Z,18.57
2018-11-04T22:38:17.088Z,17.70
2018-11-04T22:40:51.067Z,20.33
2018-11-04T22:43:25.433Z,20.27
2018-11-04T22:46:00.095Z,19.37
2018-11-04T22:48:34.135Z,19.70
2018-11-04T22:51:09.185Z,18.10
2018-11-04T22:53:43.609Z,18.33
2018-11-04T22:56:18.618Z,18.67
2018-11-04T22:58:52.697Z,18.07
2018-11-04T23:01:27.876Z,20.20
2018-11-04T23:04:01.945Z,19.57
2018-11-04T23:06:35.954Z,19.43
2018-11-04T23:09:10.449Z,20.10
2018-11-04T23:11:46.013Z,18.47
2018-11-04T23:14:21.160Z,20.20
2018-11-04T23:16:55.369Z,20.47
2018-11-04T23:19:29.738Z,19.40
2018-11-04T23:22:05.217Z,19.20
2018-11-04T23:24:39.285Z,19.43
2018-11-04T23:27:13.510Z,21.77
2018-11-04T23:29:48.284Z,18.57
2018-11-04T23:32:22.568Z,19.20
2018-11-04T23:34:56.848Z,22.00
2018-11-04T23:37:31.022Z,19.37
2018-11-04T23:40:05.784Z,19.37
2018-11-04T23:42:39.893Z,18.67
2018-11-04T23:45:14.603Z,21.10
2018-11-04T23:47:49.188Z,22.67
2018-11-04T23:50:23.481Z,19.57
2018-11-04T23:52:57.647Z,19.47
2018-11-04T23:55:32.012Z,19.93
2018-11-04T23:58:08.988Z,20.33
